createdAt,value
2022-10-14T00:00:40.594Z,100438.72
2022-10-14T00:01:42.058Z,100453.31
2022-10-14T00:02:43.551Z,100440.91
2022-10-14T00:03:44.974Z,100445.72
2022-10-14T00:04:47.317Z,100444.88
2022-10-14T00:05:48.778Z,100446.03
2022-10-14T00:06:50.200Z,100454.16
2022-10-14T00:07:51.672Z,100438.09
2022-10-14T00:08:53.189Z,100446.03
2022-10-14T00:09:54.650Z,100440.91
2022-10-14T00:10:56.098Z,100443.72
2022-10-14T00:11:57.534Z,100446.56
2022-10-14T00:12:59.746Z,100446.03
2022-10-14T00:14:02.289Z,100438.72
2022-10-14T00:15:03.963Z,100448.31
2022-10-14T00:16:05.610Z,100443.50
2022-10-14T00:17:07.106Z,100449.97
2022-10-14T00:18:08.619Z,100446.84
2022-10-14T00:19:10.109Z,100443.22
2022-10-14T00:20:11.885Z,100444.34
2022-10-14T00:21:13.418Z,100447.16
2022-10-14T00:22:14.835Z,100451.66
2022-10-14T00:23:16.547Z,100450.50
2022-10-14T00:24:18.851Z,100452.50
2022-10-14T00:25:20.285Z,100441.63
2022-10-14T00:26:23.042Z,100445.31
2022-10-14T00:27:24.799Z,100446.72
2022-10-14T00:28:26.256Z,100440.47
2022-10-14T00:29:27.815Z,100446.63
2022-10-14T00:30:29.551Z,100446.34
2022-10-14T00:31:34.275Z,100441.00
2022-10-14T00:32:35.790Z,100446.34
2022-10-14T00:33:37.238Z,100445.19
2022-10-14T00:34:38.694Z,100450.22
2022-10-14T00:35:40.219Z,100445.41
2022-10-14T00:36:41.926Z,100442.00
2022-10-14T00:37:47.208Z,100442.00
2022-10-14T00:38:48.742Z,100441.69
2022-10-14T00:39:54.720Z,100441.47
2022-10-14T00:40:59.146Z,100441.47
2022-10-14T00:42:00.610Z,100443.69
2022-10-14T00:43:02.087Z,100443.69
2022-10-14T00:44:07.226Z,100445.66
2022-10-14T00:45:15.055Z,100447.13
2022-10-14T00:46:16.491Z,100448.78
2022-10-14T00:47:18.892Z,100448.84
2022-10-14T00:48:21.106Z,100443.50
2022-10-14T00:49:36.175Z,100437.56
2022-10-14T00:50:37.839Z,100438.94
2022-10-14T00:51:39.883Z,100444.88
2022-10-14T00:52:41.411Z,100449.97
2022-10-14T00:53:42.986Z,100446.56
2022-10-14T00:54:45.330Z,100443.47
2022-10-14T00:55:46.868Z,100450.75
2022-10-14T00:56:48.676Z,100451.28
2022-10-14T00:57:50.147Z,100448.16
2022-10-14T00:58:51.930Z,100439.41
2022-10-14T00:59:54.039Z,100435.84
2022-10-14T01:00:55.741Z,100434.41
2022-10-14T01:01:57.322Z,100436.38
2022-10-14T01:02:58.776Z,100440.38
2022-10-14T01:04:00.272Z,100439.78
2022-10-14T01:05:01.740Z,100431.88
2022-10-14T01:06:20.926Z,100437.53
2022-10-14T01:07:22.587Z,100433.03
2022-10-14T01:08:27.063Z,100424.59
2022-10-14T01:09:34.410Z,100438.66
2022-10-14T01:10:39.610Z,100432.47
2022-10-14T01:11:41.304Z,100430.28
2022-10-14T01:12:47.830Z,100431.41
2022-10-14T01:14:07.860Z,100433.09
2022-10-14T01:15:09.284Z,100423.19
2022-10-14T01:16:19.515Z,100432.19
2022-10-14T01:17:28.916Z,100436.38
2022-10-14T01:18:31.590Z,100432.47
2022-10-14T01:19:51.896Z,100429.13
2022-10-14T01:20:56.189Z,100434.75
2022-10-14T01:22:01.486Z,100428.91
2022-10-14T01:23:21.449Z,100427.22
2022-10-14T01:24:22.885Z,100429.25
2022-10-14T01:25:24.659Z,100429.25
2022-10-14T01:26:29.229Z,100434.63
2022-10-14T01:27:30.694Z,100425.88
2022-10-14T01:28:38.281Z,100425.25
2022-10-14T01:29:42.684Z,100429.50
2022-10-14T01:30:44.486Z,100425.03
2022-10-14T01:31:47.919Z,100428.69
2022-10-14T01:32:49.454Z,100420.75
2022-10-14T01:33:55.117Z,100421.38
2022-10-14T01:35:02.934Z,100425.88
2022-10-14T01:36:24.242Z,100422.88
2022-10-14T01:37:26.535Z,100423.72
2022-10-14T01:38:29.699Z,100420.59
2022-10-14T01:39:36.048Z,100421.13
2022-10-14T01:40:39.698Z,100418.00
2022-10-14T01:41:55.494Z,100421.38
2022-10-14T01:42:57.343Z,100413.59
2022-10-14T01:44:00.742Z,100418.59
2022-10-14T01:45:21.060Z,100413.59
2022-10-14T01:46:22.899Z,100415.25
2022-10-14T01:47:24.420Z,100415.25
2022-10-14T01:48:33.528Z,100407.66
2022-10-14T01:49:36.023Z,100410.25
2022-10-14T01:50:37.478Z,100412.53
2022-10-14T01:51:44.031Z,100418.16
2022-10-14T01:52:50.439Z,100405.75
2022-10-14T01:53:59.034Z,100404.22
2022-10-14T01:55:01.787Z,100404.53
2022-10-14T01:56:03.982Z,100400.88
2022-10-14T01:57:07.866Z,100404.84
2022-10-14T01:58:09.423Z,100399.19
2022-10-14T01:59:10.871Z,100399.72
2022-10-14T02:00:12.562Z,100400.78
2022-10-14T02:01:17.253Z,100401.31
2022-10-14T02:02:20.594Z,100399.66
2022-10-14T02:03:22.417Z,100395.16
2022-10-14T02:04:23.928Z,100398.91
2022-10-14T02:05:38.956Z,100393.63
2022-10-14T02:06:40.434Z,100394.44
2022-10-14T02:07:45.736Z,100384.88
2022-10-14T02:08:58.632Z,100393.00
2022-10-14T02:10:18.422Z,100388.22
2022-10-14T02:11:19.947Z,100376.69
2022-10-14T02:12:21.757Z,100381.16
2022-10-14T02:13:26.291Z,100377.22
2022-10-14T02:14:32.956Z,100370.97
2022-10-14T02:15:34.384Z,100382.22
2022-10-14T02:16:38.258Z,100374.31
2022-10-14T02:17:51.531Z,100378.81
2022-10-14T02:19:01.649Z,100376.00
2022-10-14T02:20:13.681Z,100382.72
2022-10-14T02:21:18.098Z,100370.84
2022-10-14T02:22:28.048Z,100386.06
2022-10-14T02:23:33.050Z,100377.06
2022-10-14T02:24:41.175Z,100370.84
2022-10-14T02:25:43.518Z,100367.72
2022-10-14T02:26:45.005Z,100361.75
2022-10-14T02:27:46.488Z,100359.47
2022-10-14T02:28:48.196Z,100360.00
2022-10-14T02:29:49.666Z,100356.34
2022-10-14T02:30:52.193Z,100351.56
2022-10-14T02:31:53.983Z,100363.13
2022-10-14T02:32:55.426Z,100355.38
2022-10-14T02:33:57.896Z,100347.78
2022-10-14T02:34:59.369Z,100344.41
2022-10-14T02:36:02.080Z,100342.44
2022-10-14T02:37:03.574Z,100344.41
2022-10-14T02:38:06.923Z,100345.53
2022-10-14T02:39:09.458Z,100350.91
2022-10-14T02:40:13.746Z,100350.91
2022-10-14T02:41:16.165Z,100340.75
2022-10-14T02:42:17.768Z,100335.69
2022-10-14T02:43:19.341Z,100343.28
2022-10-14T02:44:23.836Z,100342.72
2022-10-14T02:45:26.366Z,100341.75
2022-10-14T02:46:29.046Z,100339.53
2022-10-14T02:47:30.495Z,100336.13
2022-10-14T02:48:31.933Z,100332.78
2022-10-14T02:49:33.662Z,100335.88
2022-10-14T02:50:35.132Z,100330.50
2022-10-14T02:51:36.583Z,100338.31
2022-10-14T02:52:38.060Z,100336.34
2022-10-14T02:53:39.521Z,100334.91
2022-10-14T02:54:41.043Z,100339.38
2022-10-14T02:55:42.552Z,100333.44
2022-10-14T02:56:43.998Z,100332.03
2022-10-14T02:57:45.476Z,100330.63
2022-10-14T02:58:46.976Z,100333.13
2022-10-14T02:59:48.467Z,100327.50
2022-10-14T03:00:49.974Z,100328.06
2022-10-14T03:01:52.413Z,100328.91
2022-10-14T03:02:55.646Z,100324.69
2022-10-14T03:03:58.715Z,100322.59
2022-10-14T03:05:00.231Z,100326.53
2022-10-14T03:06:03.295Z,100316.72
2022-10-14T03:07:04.795Z,100309.13
2022-10-14T03:08:09.246Z,100311.09
2022-10-14T03:09:12.239Z,100311.94
2022-10-14T03:10:15.519Z,100304.38
2022-10-14T03:11:17.263Z,100312.53
2022-10-14T03:12:19.907Z,100316.94
2022-10-14T03:13:22.706Z,100318.63
2022-10-14T03:14:24.705Z,100313.00
2022-10-14T03:15:27.003Z,100317.16
2022-10-14T03:16:28.978Z,100310.41
2022-10-14T03:17:30.856Z,100310.72
2022-10-14T03:18:37.032Z,100309.03
2022-10-14T03:19:45.811Z,100314.34
2022-10-14T03:20:49.227Z,100308.41
2022-10-14T03:21:56.060Z,100306.13
2022-10-14T03:22:57.603Z,100295.28
2022-10-14T03:23:59.098Z,100298.81
2022-10-14T03:25:07.197Z,100311.75
2022-10-14T03:26:15.739Z,100308.41
2022-10-14T03:27:20.924Z,100309.03
2022-10-14T03:28:27.008Z,100304.03
2022-10-14T03:29:41.660Z,100302.41
2022-10-14T03:30:52.203Z,100308.13
2022-10-14T03:32:09.876Z,100311.00
2022-10-14T03:33:33.717Z,100305.09
2022-10-14T03:34:47.377Z,100306.50
2022-10-14T03:35:54.235Z,100304.31
2022-10-14T03:37:04.411Z,100297.84
2022-10-14T03:38:07.310Z,100298.97
2022-10-14T03:39:10.128Z,100298.47
2022-10-14T03:40:25.862Z,100293.19
2022-10-14T03:41:27.382Z,100301.72
2022-10-14T03:42:29.411Z,100297.53
2022-10-14T03:43:30.991Z,100289.63
2022-10-14T03:44:33.699Z,100293.19
2022-10-14T03:45:54.462Z,100298.28
2022-10-14T03:46:58.457Z,100295.47
2022-10-14T03:48:04.568Z,100293.50
2022-10-14T03:49:06.033Z,100296.31
2022-10-14T03:50:08.066Z,100296.00
2022-10-14T03:51:17.947Z,100303.06
2022-10-14T03:52:20.899Z,100298.91
2022-10-14T03:53:33.144Z,100300.88
2022-10-14T03:54:34.652Z,100303.47
2022-10-14T03:55:36.197Z,100298.91
2022-10-14T03:56:39.290Z,100292.97
2022-10-14T03:57:40.903Z,100295.88
2022-10-14T03:58:42.385Z,100304.00
2022-10-14T03:59:48.031Z,100301.72
2022-10-14T04:00:49.508Z,100298.59
2022-10-14T04:02:03.859Z,100297.16
2022-10-14T04:03:05.779Z,100296.00
2022-10-14T04:04:12.364Z,100297.44
2022-10-14T04:05:13.871Z,100299.97
2022-10-14T04:06:17.645Z,100295.47
2022-10-14T04:07:19.896Z,100289.00
2022-10-14T04:08:27.458Z,100284.75
2022-10-14T04:09:48.854Z,100289.50
2022-10-14T04:10:53.636Z,100290.84
2022-10-14T04:11:57.907Z,100291.38
2022-10-14T04:13:15.754Z,100288.78
2022-10-14T04:14:17.378Z,100290.19
2022-10-14T04:15:23.050Z,100289.03
2022-10-14T04:16:49.825Z,100290.75
2022-10-14T04:17:52.343Z,100282.41
2022-10-14T04:18:54.058Z,100292.22
2022-10-14T04:19:57.208Z,100289.94
2022-10-14T04:21:02.308Z,100294.97
2022-10-14T04:22:05.339Z,100292.44
2022-10-14T04:23:08.313Z,100290.19
2022-10-14T04:24:10.937Z,100292.38
2022-10-14T04:25:27.042Z,100296.34
2022-10-14T04:26:36.785Z,100291.25
2022-10-14T04:27:42.429Z,100292.28
2022-10-14T04:28:44.054Z,100286.75
2022-10-14T04:29:50.347Z,100286.22
2022-10-14T04:30:59.583Z,100286.53
2022-10-14T04:32:07.603Z,100289.56
2022-10-14T04:33:10.815Z,100287.41
2022-10-14T04:34:13.473Z,100280.13
2022-10-14T04:35:15.320Z,100282.63
2022-10-14T04:36:19.603Z,100280.34
2022-10-14T04:37:21.099Z,100276.16
2022-10-14T04:38:29.507Z,100284.31
2022-10-14T04:39:36.315Z,100277.84
2022-10-14T04:40:38.926Z,100274.41
2022-10-14T04:41:41.141Z,100273.28
2022-10-14T04:42:43.191Z,100268.19
2022-10-14T04:43:54.186Z,100258.31
2022-10-14T04:45:04.287Z,100264.75
2022-10-14T04:46:17.878Z,100267.06
2022-10-14T04:47:20.155Z,100259.75
2022-10-14T04:48:26.655Z,100262.63
2022-10-14T04:49:29.836Z,100260.94
2022-10-14T04:50:42.028Z,100263.03
2022-10-14T04:52:02.124Z,100261.41
2022-10-14T04:53:13.416Z,100265.06
2022-10-14T04:54:28.003Z,100259.50
2022-10-14T04:55:31.920Z,100264.59
2022-10-14T04:56:33.815Z,100258.38
2022-10-14T04:57:39.625Z,100266.59
2022-10-14T04:58:41.558Z,100259.28
2022-10-14T04:59:44.921Z,100257.31
2022-10-14T05:01:17.591Z,100251.00
2022-10-14T05:02:19.395Z,100252.66
2022-10-14T05:03:26.879Z,100252.59
2022-10-14T05:04:28.468Z,100246.97
2022-10-14T05:05:32.611Z,100250.94
2022-10-14T05:06:38.130Z,100251.53
2022-10-14T05:07:41.663Z,100250.94
2022-10-14T05:08:59.383Z,100247.66
2022-10-14T05:10:01.528Z,100250.69
2022-10-14T05:11:11.267Z,100251.47
2022-10-14T05:12:21.342Z,100244.06
2022-10-14T05:13:28.741Z,100247.19
2022-10-14T05:14:36.116Z,100246.75
2022-10-14T05:15:49.310Z,100245.34
2022-10-14T05:16:50.780Z,100236.91
2022-10-14T05:17:58.846Z,100242.53
2022-10-14T05:19:13.258Z,100245.66
2022-10-14T05:20:22.654Z,100242.78
2022-10-14T05:21:28.126Z,100238.59
2022-10-14T05:22:37.502Z,100246.19
2022-10-14T05:23:39.293Z,100244.47
2022-10-14T05:24:40.883Z,100241.88
2022-10-14T05:25:42.484Z,100237.59
2022-10-14T05:26:44.058Z,100241.78
2022-10-14T05:27:47.847Z,100238.69
2022-10-14T05:28:51.287Z,100230.84
2022-10-14T05:29:54.170Z,100235.31
2022-10-14T05:30:55.767Z,100239.28
2022-10-14T05:31:57.395Z,100239.06
2022-10-14T05:33:15.178Z,100246.50
2022-10-14T05:34:17.139Z,100246.06
2022-10-14T05:35:29.245Z,100252.22
2022-10-14T05:36:41.395Z,100244.84
2022-10-14T05:37:42.951Z,100246.75
2022-10-14T05:38:44.663Z,100241.97
2022-10-14T05:39:46.549Z,100240.50
2022-10-14T05:40:56.286Z,100238.31
2022-10-14T05:41:58.090Z,100232.69
2022-10-14T05:43:02.101Z,100231.84
2022-10-14T05:44:04.816Z,100226.22
2022-10-14T05:45:06.936Z,100235.19
2022-10-14T05:46:11.722Z,100226.75
2022-10-14T05:47:16.970Z,100232.59
2022-10-14T05:48:21.194Z,100236.78
2022-10-14T05:49:23.694Z,100235.72
2022-10-14T05:50:25.268Z,100231.53
2022-10-14T05:51:27.875Z,100230.84
2022-10-14T05:52:37.243Z,100231.91
2022-10-14T05:53:47.614Z,100242.63
2022-10-14T05:54:52.731Z,100233.56
2022-10-14T05:56:02.089Z,100236.63
2022-10-14T05:57:03.729Z,100236.34
2022-10-14T05:58:05.266Z,100244.69
2022-10-14T05:59:11.098Z,100245.22
2022-10-14T06:00:14.064Z,100242.41
2022-10-14T06:01:26.231Z,100244.06
2022-10-14T06:02:27.729Z,100240.94
2022-10-14T06:03:29.317Z,100240.63
2022-10-14T06:04:31.254Z,100246.81
2022-10-14T06:05:35.039Z,100242.03
2022-10-14T06:06:37.244Z,100244.53
2022-10-14T06:07:38.682Z,100242.34
2022-10-14T06:08:40.308Z,100236.16
2022-10-14T06:09:41.754Z,100245.75
2022-10-14T06:10:43.987Z,100240.34
2022-10-14T06:11:45.585Z,100241.19
2022-10-14T06:12:47.263Z,100242.56
2022-10-14T06:13:48.751Z,100239.75
2022-10-14T06:14:51.419Z,100241.41
2022-10-14T06:15:53.664Z,100230.16
2022-10-14T06:16:55.691Z,100242.25
2022-10-14T06:17:58.360Z,100241.78
2022-10-14T06:19:01.158Z,100235.56
2022-10-14T06:20:03.151Z,100238.06
2022-10-14T06:21:04.915Z,100236.63
2022-10-14T06:22:06.397Z,100234.34
2022-10-14T06:23:07.960Z,100232.66
2022-10-14T06:24:09.416Z,100229.31
2022-10-14T06:25:10.908Z,100237.75
2022-10-14T06:26:12.415Z,100230.16
2022-10-14T06:27:13.834Z,100233.50
2022-10-14T06:28:15.455Z,100233.50
2022-10-14T06:29:17.076Z,100227.88
2022-10-14T06:30:18.546Z,100223.59
2022-10-14T06:31:20.858Z,100222.44
2022-10-14T06:32:22.656Z,100222.69
2022-10-14T06:33:24.411Z,100216.81
2022-10-14T06:34:25.938Z,100224.00
2022-10-14T06:35:27.399Z,100229.31
2022-10-14T06:36:28.911Z,100221.50
2022-10-14T06:37:30.402Z,100225.16
2022-10-14T06:38:31.954Z,100224.31
2022-10-14T06:39:33.387Z,100233.06
2022-10-14T06:40:35.728Z,100231.38
2022-10-14T06:41:37.266Z,100221.56
2022-10-14T06:42:38.908Z,100225.31
2022-10-14T06:43:40.406Z,100230.84
2022-10-14T06:44:41.954Z,100220.41
2022-10-14T06:45:43.472Z,100213.72
2022-10-14T06:46:45.131Z,100223.00
2022-10-14T06:47:46.919Z,100220.19
2022-10-14T06:48:50.444Z,100216.53
2022-10-14T06:49:52.162Z,100221.56
2022-10-14T06:50:53.650Z,100223.22
2022-10-14T06:52:00.343Z,100220.34
2022-10-14T06:53:03.993Z,100214.09
2022-10-14T06:54:05.530Z,100217.00
2022-10-14T06:55:07.139Z,100224.47
2022-10-14T06:56:09.368Z,100222.38
2022-10-14T06:57:10.931Z,100224.91
2022-10-14T06:58:12.943Z,100224.91
2022-10-14T06:59:14.368Z,100214.47
2022-10-14T07:00:16.212Z,100219.28
2022-10-14T07:01:17.758Z,100221.50
2022-10-14T07:02:19.778Z,100220.94
2022-10-14T07:03:21.646Z,100225.72
2022-10-14T07:04:23.112Z,100228.28
2022-10-14T07:05:24.667Z,100224.31
2022-10-14T07:06:26.138Z,100230.47
2022-10-14T07:07:27.591Z,100229.69
2022-10-14T07:08:29.071Z,100222.38
2022-10-14T07:09:30.544Z,100227.13
2022-10-14T07:10:32.047Z,100224.84
2022-10-14T07:11:33.483Z,100224.22
2022-10-14T07:12:34.938Z,100221.63
2022-10-14T07:13:37.773Z,100224.13
2022-10-14T07:14:39.250Z,100226.34
2022-10-14T07:15:40.704Z,100223.53
2022-10-14T07:16:45.169Z,100218.97
2022-10-14T07:17:46.784Z,100221.47
2022-10-14T07:18:48.534Z,100217.19
2022-10-14T07:19:50.207Z,100216.44
2022-10-14T07:20:51.671Z,100215.00
2022-10-14T07:21:53.200Z,100215.00
2022-10-14T07:22:55.188Z,100210.41
2022-10-14T07:23:56.986Z,100214.31
2022-10-14T07:24:58.418Z,100219.63
2022-10-14T07:26:00.041Z,100217.34
2022-10-14T07:28:08.171Z,100213.06
2022-10-14T07:29:09.631Z,100211.91
2022-10-14T07:30:13.820Z,100211.91
2022-10-14T07:31:18.280Z,100209.19
2022-10-14T07:32:19.739Z,100206.06
2022-10-14T07:33:21.164Z,100207.75
2022-10-14T07:34:22.622Z,100213.16
2022-10-14T07:35:25.623Z,100207.53
2022-10-14T07:36:27.089Z,100210.97
2022-10-14T07:37:28.786Z,100221.09
2022-10-14T07:38:30.589Z,100217.66
2022-10-14T07:39:32.075Z,100210.56
2022-10-14T07:40:33.664Z,100213.59
2022-10-14T07:41:35.183Z,100206.28
2022-10-14T07:42:36.651Z,100207.44
2022-10-14T07:43:38.094Z,100212.22
2022-10-14T07:44:39.934Z,100212.53
2022-10-14T07:45:43.920Z,100226.63
2022-10-14T07:46:45.447Z,100217.03
2022-10-14T07:47:47.160Z,100213.06
2022-10-14T07:48:59.245Z,100209.63
2022-10-14T07:50:01.630Z,100220.38
2022-10-14T07:51:03.152Z,100214.72
2022-10-14T07:52:04.706Z,100216.09
2022-10-14T07:53:06.183Z,100210.19
2022-10-14T07:54:11.147Z,100214.34
2022-10-14T07:55:12.672Z,100210.91
2022-10-14T07:56:14.355Z,100214.25
2022-10-14T07:57:16.652Z,100206.31
2022-10-14T07:58:21.966Z,100213.94
2022-10-14T07:59:23.431Z,100216.44
2022-10-14T08:00:24.910Z,100216.16
2022-10-14T08:01:26.512Z,100218.41
2022-10-14T08:02:29.080Z,100223.47
2022-10-14T08:03:30.619Z,100214.69
2022-10-14T08:04:32.119Z,100222.00
2022-10-14T08:05:38.277Z,100219.50
2022-10-14T08:06:40.438Z,100216.16
2022-10-14T08:07:41.884Z,100212.78
2022-10-14T08:08:44.145Z,100219.25
2022-10-14T08:09:45.854Z,100216.16
2022-10-14T08:10:47.307Z,100220.09
2022-10-14T08:11:48.816Z,100219.50
2022-10-14T08:12:51.237Z,100218.97
2022-10-14T08:13:52.898Z,100219.56
2022-10-14T08:14:57.964Z,100216.75
2022-10-14T08:15:59.384Z,100222.91
2022-10-14T08:17:00.811Z,100219.50
2022-10-14T08:18:02.506Z,100218.88
2022-10-14T08:19:08.493Z,100212.09
2022-10-14T08:20:12.676Z,100219.50
2022-10-14T08:21:14.363Z,100215.09
2022-10-14T08:22:15.789Z,100208.00
2022-10-14T08:23:19.100Z,100216.16
2022-10-14T08:24:21.894Z,100209.06
2022-10-14T08:25:23.494Z,100210.09
2022-10-14T08:26:43.235Z,100217.41
2022-10-14T08:27:44.780Z,100210.94
2022-10-14T08:28:46.797Z,100215.53
2022-10-14T08:29:48.401Z,100211.03
2022-10-14T08:30:50.286Z,100203.13
2022-10-14T08:31:52.453Z,100209.28
2022-10-14T08:32:53.996Z,100205.41
2022-10-14T08:33:55.473Z,100200.31
2022-10-14T08:34:56.990Z,100198.19
2022-10-14T08:35:58.410Z,100204.88
2022-10-14T08:36:59.858Z,100189.03
2022-10-14T08:38:01.793Z,100210.41
2022-10-14T08:39:03.522Z,100195.78
2022-10-14T08:40:05.336Z,100206.75
2022-10-14T08:41:13.024Z,100209.34
2022-10-14T08:42:16.187Z,100203.59
2022-10-14T08:43:19.764Z,100203.28
2022-10-14T08:44:25.419Z,100201.00
2022-10-14T08:45:30.484Z,100201.75
2022-10-14T08:46:45.701Z,100202.81
2022-10-14T08:47:49.465Z,100207.09
2022-10-14T08:48:51.410Z,100205.94
2022-10-14T08:49:54.794Z,100205.09
2022-10-14T08:51:07.549Z,100196.84
2022-10-14T08:52:10.463Z,100196.84
2022-10-14T08:53:11.891Z,100192.91
2022-10-14T08:54:15.522Z,100190.72
2022-10-14T08:55:22.714Z,100190.06
2022-10-14T08:56:24.428Z,100188.00
2022-10-14T08:57:26.795Z,100193.88
2022-10-14T08:58:31.774Z,100188.97
2022-10-14T08:59:34.518Z,100192.03
2022-10-14T09:00:35.953Z,100190.38
2022-10-14T09:01:40.382Z,100190.56
2022-10-14T09:02:48.570Z,100190.25
2022-10-14T09:03:50.871Z,100187.63
2022-10-14T09:04:52.306Z,100187.44
2022-10-14T09:05:57.717Z,100190.78
2022-10-14T09:06:59.147Z,100183.47
2022-10-14T09:08:00.658Z,100185.75
2022-10-14T09:09:14.528Z,100180.66
2022-10-14T09:10:18.732Z,100183.25
2022-10-14T09:11:20.847Z,100184.09
2022-10-14T09:12:26.455Z,100187.94
2022-10-14T09:13:47.212Z,100177.72
2022-10-14T09:15:11.579Z,100174.91
2022-10-14T09:16:22.983Z,100178.56
2022-10-14T09:17:25.599Z,100179.81
2022-10-14T09:18:28.680Z,100189.28
2022-10-14T09:19:34.897Z,100183.44
2022-10-14T09:20:36.374Z,100174.69
2022-10-14T09:21:52.243Z,100179.69
2022-10-14T09:22:57.740Z,100170.19
2022-10-14T09:24:16.668Z,100174.69
2022-10-14T09:25:18.211Z,100180.31
2022-10-14T09:26:19.666Z,100175.72
2022-10-14T09:27:22.072Z,100167.91
2022-10-14T09:28:27.039Z,100160.50
2022-10-14T09:29:29.262Z,100168.66
2022-10-14T09:30:30.799Z,100168.22
2022-10-14T09:32:41.750Z,100165.53
2022-10-14T09:33:43.226Z,100167.72
2022-10-14T09:34:45.338Z,100156.94
2022-10-14T09:35:46.848Z,100159.78
2022-10-14T09:36:48.438Z,100167.72
2022-10-14T09:37:50.034Z,100166.16
2022-10-14T09:38:52.733Z,100166.69
2022-10-14T09:39:56.058Z,100157.72
2022-10-14T09:40:58.636Z,100155.72
2022-10-14T09:42:00.105Z,100151.31
2022-10-14T09:43:10.538Z,100161.97
2022-10-14T09:44:25.754Z,100148.69
2022-10-14T09:45:28.183Z,100139.66
2022-10-14T09:46:29.630Z,100145.28
2022-10-14T09:47:31.120Z,100144.44
2022-10-14T09:48:34.072Z,100148.63
2022-10-14T09:49:45.767Z,100141.84
2022-10-14T09:50:51.737Z,100144.34
2022-10-14T09:51:53.219Z,100145.28
2022-10-14T09:52:55.978Z,100143.91
2022-10-14T09:53:57.952Z,100141.31
2022-10-14T09:55:00.108Z,100136.50
2022-10-14T09:56:02.822Z,100135.38
2022-10-14T09:57:08.069Z,100135.88
2022-10-14T09:58:14.112Z,100125.94
2022-10-14T09:59:21.804Z,100128.44
2022-10-14T10:00:27.227Z,100128.69
2022-10-14T10:01:51.779Z,100119.91
2022-10-14T10:02:55.214Z,100117.09
2022-10-14T10:03:56.849Z,100121.25
2022-10-14T10:04:58.823Z,100118.13
2022-10-14T10:06:04.302Z,100116.44
2022-10-14T10:07:07.334Z,100108.63
2022-10-14T10:08:14.650Z,100121.91
2022-10-14T10:09:19.345Z,100114.16
2022-10-14T10:10:21.216Z,100109.53
2022-10-14T10:11:29.759Z,100106.09
2022-10-14T10:12:32.105Z,100105.47
2022-10-14T10:13:38.331Z,100111.94
2022-10-14T10:14:39.777Z,100111.09
2022-10-14T10:15:41.615Z,100109.63
2022-10-14T10:16:43.114Z,100114.13
2022-10-14T10:17:46.011Z,100104.97
2022-10-14T10:18:47.923Z,100111.09
2022-10-14T10:19:51.721Z,100113.28
2022-10-14T10:21:06.839Z,100106.50
2022-10-14T10:22:24.371Z,100118.28
2022-10-14T10:23:25.803Z,100118.09
2022-10-14T10:24:30.191Z,100118.09
2022-10-14T10:25:32.483Z,100108.81
2022-10-14T10:26:34.102Z,100099.81
2022-10-14T10:27:36.642Z,100104.31
2022-10-14T10:28:38.171Z,100102.53
2022-10-14T10:29:39.663Z,100098.56
2022-10-14T10:31:13.745Z,100100.75
2022-10-14T10:32:42.568Z,100106.59
2022-10-14T10:33:55.784Z,100096.78
2022-10-14T10:35:03.034Z,100098.56
2022-10-14T10:36:21.422Z,100101.81
2022-10-14T10:37:26.830Z,100103.47
2022-10-14T10:38:32.502Z,100102.78
2022-10-14T10:40:00.059Z,100094.84
2022-10-14T10:41:09.867Z,100100.34
2022-10-14T10:42:21.469Z,100099.38
2022-10-14T10:43:49.132Z,100088.94
2022-10-14T10:44:58.867Z,100086.38
2022-10-14T10:46:23.654Z,100090.53
2022-10-14T10:47:25.150Z,100092.84
2022-10-14T10:48:55.892Z,100084.06
2022-10-14T10:50:12.329Z,100090.44
2022-10-14T10:51:16.556Z,100084.28
2022-10-14T10:52:41.251Z,100091.41
2022-10-14T10:53:49.794Z,100086.78
2022-10-14T10:55:10.267Z,100075.97
2022-10-14T10:56:34.965Z,100081.47
2022-10-14T10:57:56.763Z,100077.59
2022-10-14T10:59:10.462Z,100075.09
2022-10-14T11:00:12.195Z,100084.25
2022-10-14T11:01:26.118Z,100079.13
2022-10-14T11:02:27.722Z,100073.16
2022-10-14T11:03:49.040Z,100081.44
2022-10-14T11:04:51.251Z,100065.53
2022-10-14T11:06:01.982Z,100070.75
2022-10-14T11:07:34.114Z,100078.56
2022-10-14T11:09:05.960Z,100065.00
2022-10-14T11:10:31.533Z,100065.53
2022-10-14T11:11:51.664Z,100051.03
2022-10-14T11:13:05.786Z,100069.59
2022-10-14T11:14:12.988Z,100077.03
2022-10-14T11:15:23.951Z,100063.13
2022-10-14T11:16:46.543Z,100059.81
2022-10-14T11:18:06.475Z,100068.91
2022-10-14T11:19:14.608Z,100061.88
2022-10-14T11:20:27.808Z,100056.25
2022-10-14T11:21:29.361Z,100057.41
2022-10-14T11:23:09.561Z,100043.81
2022-10-14T11:24:13.761Z,100049.34
2022-10-14T11:25:15.322Z,100048.53
2022-10-14T11:26:22.888Z,100044.56
2022-10-14T11:27:32.054Z,100044.88
2022-10-14T11:28:52.021Z,100044.38
2022-10-14T11:30:14.039Z,100037.06
2022-10-14T11:31:28.577Z,100034.44
2022-10-14T11:32:37.985Z,100035.25
2022-10-14T11:34:12.542Z,100036.59
2022-10-14T11:35:18.033Z,100027.31
2022-10-14T11:36:22.641Z,100028.97
2022-10-14T11:37:38.906Z,100032.81
2022-10-14T11:38:44.231Z,100029.88
2022-10-14T11:39:53.001Z,100037.19
2022-10-14T11:40:59.807Z,100032.19
2022-10-14T11:42:04.914Z,100029.69
2022-10-14T11:43:07.055Z,100028.66
2022-10-14T11:44:08.550Z,100031.38
2022-10-14T11:45:17.284Z,100029.06
2022-10-14T11:46:22.236Z,100036.28
2022-10-14T11:47:25.078Z,100029.47
2022-10-14T11:48:29.458Z,100034.81
2022-10-14T11:49:36.807Z,100025.66
2022-10-14T11:50:40.187Z,100023.66
2022-10-14T11:52:04.742Z,100029.09
2022-10-14T11:53:23.136Z,100023.97
2022-10-14T11:54:28.560Z,100022.50
2022-10-14T11:55:32.392Z,100025.31
2022-10-14T11:56:39.811Z,100022.19
2022-10-14T11:57:42.613Z,100011.22
2022-10-14T11:58:44.047Z,100010.91
2022-10-14T12:00:16.679Z,100007.44
2022-10-14T12:01:38.190Z,100015.53
2022-10-14T12:02:49.591Z,100011.53
2022-10-14T12:04:04.673Z,100007.88
2022-10-14T12:05:08.769Z,100006.75
2022-10-14T12:06:16.492Z,100007.25
2022-10-14T12:07:18.806Z,100016.53
2022-10-14T12:08:41.126Z,100006.09
2022-10-14T12:09:43.237Z,99999.44
2022-10-14T12:10:45.891Z,99998.59
2022-10-14T12:11:50.480Z,99996.78
2022-10-14T12:12:51.976Z,99993.88
2022-10-14T12:13:54.742Z,99992.91
2022-10-14T12:15:00.220Z,99988.28
2022-10-14T12:16:01.672Z,99987.31
2022-10-14T12:17:26.364Z,99986.16
2022-10-14T12:18:28.513Z,99978.22
2022-10-14T12:19:30.098Z,99978.72
2022-10-14T12:20:34.549Z,99974.44
2022-10-14T12:21:38.674Z,99980.38
2022-10-14T12:22:40.201Z,99978.72
2022-10-14T12:23:48.418Z,99977.56
2022-10-14T12:24:50.963Z,99980.38
2022-10-14T12:26:06.902Z,99972.56
2022-10-14T12:27:10.334Z,99971.75
2022-10-14T12:28:11.859Z,99977.81